createdAt,value
2022-09-15T00:04:08.811Z,161.40
2022-09-15T00:09:17.591Z,87.30
2022-09-15T00:14:08.977Z,101.30
2022-09-15T00:19:08.664Z,102.90
2022-09-15T00:24:08.572Z,117.70
2022-09-15T00:29:08.517Z,88.70
2022-09-15T00:34:08.495Z,113.30
2022-09-15T00:39:08.538Z,137.80
2022-09-15T00:44:08.512Z,96.70
2022-09-15T00:49:08.409Z,95.60
2022-09-15T00:54:08.451Z,97.40
2022-09-15T00:59:08.411Z,96.60
2022-09-15T01:04:08.358Z,106.80
2022-09-15T01:09:08.257Z,128.70
2022-09-15T01:14:08.263Z,98.70
2022-09-15T01:19:08.872Z,255.30
2022-09-15T01:24:08.094Z,504.50
2022-09-15T01:29:07.897Z,315.10
2022-09-15T01:34:07.851Z,203.00
2022-09-15T01:39:07.779Z,710.40
2022-09-15T01:44:07.735Z,445.20
2022-09-15T01:49:07.752Z,413.30
2022-09-15T01:54:07.791Z,566.20
2022-09-15T01:59:07.686Z,399.40
2022-09-15T02:04:07.656Z,192.80
2022-09-15T02:09:07.528Z,462.80
2022-09-15T02:14:07.485Z,268.20
2022-09-15T02:19:07.357Z,158.80
2022-09-15T02:24:09.289Z,278.70
2022-09-15T02:29:07.243Z,110.80
2022-09-15T02:34:07.166Z,81.70
2022-09-15T02:39:07.125Z,96.40
2022-09-15T02:44:09.182Z,150.30
2022-09-15T02:49:07.072Z,325.10
2022-09-15T02:54:06.980Z,448.70
2022-09-15T02:59:06.910Z,318.20
2022-09-15T03:04:06.860Z,233.00
2022-09-15T03:09:06.771Z,182.70
2022-09-15T03:14:06.742Z,570.10
2022-09-15T03:19:06.749Z,168.30
2022-09-15T03:24:06.658Z,86.20
2022-09-15T03:29:06.583Z,100.60
2022-09-15T03:34:06.529Z,98.80
2022-09-15T03:39:06.438Z,99.30
2022-09-15T03:44:06.497Z,95.70
2022-09-15T03:49:06.428Z,98.30
2022-09-15T03:54:06.351Z,95.20
2022-09-15T03:59:06.338Z,95.50
2022-09-15T04:04:06.257Z,91.90
2022-09-15T04:09:06.173Z,97.60
2022-09-15T04:14:06.142Z,85.60
2022-09-15T04:19:06.126Z,89.50
2022-09-15T04:24:05.993Z,93.90
2022-09-15T04:29:05.917Z,89.80
2022-09-15T04:34:05.910Z,96.30
2022-09-15T04:39:05.792Z,85.30
2022-09-15T04:44:05.731Z,82.90
2022-09-15T04:49:05.862Z,76.20
2022-09-15T04:54:05.686Z,65.40
2022-09-15T04:59:05.837Z,89.40
2022-09-15T05:04:05.810Z,78.60
2022-09-15T05:09:09.949Z,71.90
2022-09-15T05:14:06.555Z,65.20
2022-09-15T05:19:05.396Z,60.40
2022-09-15T05:24:05.391Z,72.10
2022-09-15T05:29:05.332Z,72.30
2022-09-15T05:34:05.196Z,74.70
2022-09-15T05:39:05.149Z,67.20
2022-09-15T05:44:05.104Z,53.00
2022-09-15T05:49:05.160Z,70.20
2022-09-15T05:54:05.004Z,58.00
2022-09-15T05:59:08.320Z,60.70
2022-09-15T06:04:05.871Z,55.10
2022-09-15T06:10:56.280Z,53.10
2022-09-15T06:15:56.353Z,52.10
2022-09-15T06:20:56.370Z,59.70
2022-09-15T06:25:56.151Z,48.30
2022-09-15T06:30:56.148Z,50.20
2022-09-15T06:35:56.081Z,59.80
2022-09-15T06:40:56.053Z,60.10
2022-09-15T06:45:56.027Z,46.20
2022-09-15T06:50:56.929Z,46.10
2022-09-15T06:55:55.774Z,47.50
2022-09-15T07:00:55.771Z,40.70
2022-09-15T07:05:55.718Z,40.40
2022-09-15T07:10:55.624Z,44.30
2022-09-15T07:15:55.630Z,39.80
2022-09-15T07:20:55.666Z,37.30
2022-09-15T07:25:55.474Z,33.70
2022-09-15T07:30:55.468Z,34.90
2022-09-15T07:35:55.381Z,34.30
2022-09-15T07:40:55.331Z,25.90
2022-09-15T07:45:55.295Z,30.30
2022-09-15T07:50:55.285Z,25.60
2022-09-15T07:55:55.158Z,27.60
2022-09-15T08:00:55.210Z,24.80
2022-09-15T08:05:55.099Z,30.10
2022-09-15T08:10:55.058Z,30.20
2022-09-15T08:15:55.065Z,26.00
2022-09-15T08:20:54.831Z,25.00
2022-09-15T08:25:54.795Z,17.30
2022-09-15T08:30:54.859Z,20.00
2022-09-15T08:35:54.741Z,22.70
2022-09-15T08:40:54.652Z,23.10
2022-09-15T08:45:54.593Z,20.50
2022-09-15T08:50:54.544Z,15.80
2022-09-15T08:55:54.474Z,16.50
2022-09-15T09:00:54.439Z,20.20
2022-09-15T09:05:54.377Z,17.00
2022-09-15T09:10:54.298Z,16.30
2022-09-15T09:15:54.316Z,18.70
2022-09-15T09:20:54.166Z,26.90
2022-09-15T09:25:54.115Z,19.00
2022-09-15T09:30:54.211Z,19.00
2022-09-15T09:35:53.988Z,18.30
2022-09-15T09:40:56.525Z,18.20
2022-09-15T09:45:54.085Z,16.30
2022-09-15T09:50:53.863Z,19.80
2022-09-15T09:55:53.839Z,14.00
2022-09-15T10:00:53.905Z,27.60
2022-09-15T10:05:53.741Z,18.30
2022-09-15T10:10:53.688Z,15.50
2022-09-15T10:15:53.615Z,10.90
2022-09-15T10:20:53.542Z,11.10
2022-09-15T10:25:59.562Z,9.80
2022-09-15T10:30:54.454Z,17.20
2022-09-15T10:35:53.529Z,7.50
2022-09-15T10:40:53.324Z,15.40
2022-09-15T10:45:53.411Z,9.30
2022-09-15T10:50:53.294Z,9.10
2022-09-15T10:55:53.685Z,17.50
2022-09-15T11:00:54.494Z,14.60
2022-09-15T11:05:53.128Z,15.40
2022-09-15T11:10:53.060Z,11.80
2022-09-15T11:15:53.051Z,10.60
2022-09-15T11:20:52.939Z,13.70
2022-09-15T11:25:52.890Z,12.80
2022-09-15T11:30:53.841Z,15.20
2022-09-15T11:35:53.387Z,10.80
2022-09-15T11:40:52.682Z,11.60
2022-09-15T11:45:53.099Z,10.10
2022-09-15T11:50:52.760Z,10.30
2022-09-15T11:55:52.692Z,7.50
2022-09-15T12:00:52.602Z,9.00
2022-09-15T12:05:52.696Z,6.60
2022-09-15T12:11:00.953Z,8.80
2022-09-15T12:15:52.497Z,8.40
2022-09-15T12:20:52.341Z,9.60
2022-09-15T12:25:52.255Z,7.90
2022-09-15T12:30:52.256Z,8.60
2022-09-15T12:35:52.111Z,8.00
2022-09-15T12:40:52.224Z,10.30
2022-09-15T12:45:52.049Z,12.70
2022-09-15T12:50:53.090Z,10.40
2022-09-15T12:55:52.044Z,13.50
2022-09-15T13:01:17.934Z,17.20
2022-09-15T13:05:53.049Z,12.60
2022-09-15T13:10:51.791Z,10.40
2022-09-15T13:15:51.907Z,14.20
2022-09-15T13:20:51.700Z,12.20
2022-09-15T13:25:52.557Z,11.30
2022-09-15T13:30:51.675Z,8.90
2022-09-15T13:35:51.517Z,16.10
2022-09-15T13:40:51.483Z,14.10
2022-09-15T13:45:52.523Z,11.50
2022-09-15T13:50:51.536Z,12.70
2022-09-15T13:55:52.348Z,12.90
2022-09-15T14:00:51.397Z,9.70
2022-09-15T14:05:56.458Z,6.10
2022-09-15T14:10:51.126Z,6.20
2022-09-15T14:17:25.783Z,6.70
2022-09-15T14:22:25.734Z,6.20
2022-09-15T14:27:25.673Z,7.20
2022-09-15T14:32:25.585Z,6.50
2022-09-15T14:37:25.571Z,5.60
2022-09-15T14:42:25.488Z,6.10
2022-09-15T14:47:25.431Z,9.60
2022-09-15T14:52:25.373Z,8.30
2022-09-15T14:57:30.066Z,10.50
2022-09-15T15:02:26.268Z,13.70
2022-09-15T15:07:25.222Z,9.50
2022-09-15T15:12:25.198Z,9.00
2022-09-15T15:17:25.115Z,8.80
2022-09-15T15:22:25.029Z,11.20
2022-09-15T15:27:24.987Z,10.80
2022-09-15T15:32:24.939Z,11.20
2022-09-15T15:37:25.025Z,12.20
2022-09-15T15:42:24.851Z,9.70
2022-09-15T15:47:24.768Z,12.10
2022-09-15T15:52:24.721Z,7.60
2022-09-15T15:57:24.680Z,11.00
2022-09-15T16:02:24.660Z,7.00
2022-09-15T16:07:24.567Z,9.00
2022-09-15T16:12:24.500Z,9.50
2022-09-15T16:17:24.447Z,13.00
2022-09-15T16:22:24.400Z,14.30
2022-09-15T16:27:24.371Z,7.60
2022-09-15T16:32:24.293Z,9.90
2022-09-15T16:37:24.219Z,13.70
2022-09-15T16:42:24.150Z,7.60
2022-09-15T16:47:24.143Z,6.70
2022-09-15T16:52:24.063Z,7.80
2022-09-15T16:57:24.002Z,8.80
2022-09-15T17:02:24.001Z,10.80
2022-09-15T17:07:23.892Z,10.50
2022-09-15T17:12:23.829Z,14.80
2022-09-15T17:17:23.784Z,8.20
2022-09-15T17:22:23.768Z,13.70
2022-09-15T17:27:23.664Z,9.40
2022-09-15T17:32:23.613Z,13.00
2022-09-15T17:37:23.575Z,11.40
2022-09-15T17:42:23.543Z,12.60
2022-09-15T17:47:23.440Z,10.70
2022-09-15T17:52:23.382Z,9.90
2022-09-15T17:57:23.373Z,9.00
2022-09-15T18:02:23.340Z,11.50
2022-09-15T18:07:23.231Z,11.10
2022-09-15T18:12:32.027Z,16.40
2022-09-15T18:17:23.136Z,9.10
2022-09-15T18:22:23.198Z,7.70
2022-09-15T18:27:23.093Z,10.90
2022-09-15T18:32:24.092Z,10.10
2022-09-15T18:37:23.149Z,7.30
2022-09-15T18:42:23.039Z,8.40
2022-09-15T18:47:23.073Z,7.20
2022-09-15T18:52:23.041Z,8.70
2022-09-15T18:57:22.868Z,11.60
2022-09-15T19:02:22.898Z,10.90
2022-09-15T19:07:27.677Z,10.20
2022-09-15T19:12:23.580Z,9.20
2022-09-15T19:17:22.479Z,8.50
2022-09-15T19:22:22.418Z,12.10
2022-09-15T19:27:22.486Z,12.30
2022-09-15T19:32:23.403Z,11.80
2022-09-15T19:37:22.354Z,7.00
2022-09-15T19:42:22.265Z,7.40
2022-09-15T19:47:22.273Z,6.30
2022-09-15T19:52:22.106Z,13.60
2022-09-15T19:57:22.052Z,12.10
2022-09-15T20:02:22.086Z,8.40
2022-09-15T20:07:21.986Z,9.50
2022-09-15T20:12:21.918Z,11.90
2022-09-15T20:17:21.924Z,15.30
2022-09-15T20:22:21.838Z,10.40
2022-09-15T20:27:21.737Z,10.10
2022-09-15T20:32:27.501Z,8.40
2022-09-15T20:37:22.672Z,7.60
2022-09-15T20:42:21.630Z,17.90
2022-09-15T20:47:21.500Z,6.30
2022-09-15T20:52:21.435Z,8.50
2022-09-15T20:57:21.412Z,8.80
2022-09-15T21:02:21.478Z,8.60
2022-09-15T21:07:21.342Z,6.10
2022-09-15T21:12:21.486Z,5.20
2022-09-15T21:17:21.167Z,9.00
2022-09-15T21:22:21.208Z,12.90
2022-09-15T21:27:21.152Z,10.40
2022-09-15T21:32:21.015Z,13.30
2022-09-15T21:37:21.064Z,10.60
2022-09-15T21:42:20.949Z,10.60
2022-09-15T21:47:20.917Z,9.50
2022-09-15T21:52:25.708Z,12.00
2022-09-15T21:57:20.781Z,8.40
2022-09-15T22:02:20.791Z,6.10
2022-09-15T22:07:20.607Z,8.20
2022-09-15T22:12:20.559Z,6.50
2022-09-15T22:17:20.535Z,9.20
2022-09-15T22:22:20.447Z,7.70
2022-09-15T22:27:20.465Z,9.70
2022-09-15T22:32:20.362Z,7.70
2022-09-15T22:37:20.323Z,5.30
2022-09-15T22:42:20.263Z,10.00
2022-09-15T22:47:20.533Z,6.40
2022-09-15T22:52:20.126Z,6.10
2022-09-15T22:57:20.067Z,7.20
2022-09-15T23:02:20.036Z,11.40
2022-09-15T23:07:19.955Z,10.00
2022-09-15T23:12:19.990Z,10.00
2022-09-15T23:17:19.927Z,7.50
2022-09-15T23:22:19.910Z,6.80
2022-09-15T23:27:19.794Z,12.40
2022-09-15T23:32:19.725Z,6.40
2022-09-15T23:37:19.761Z,10.20
2022-09-15T23:42:19.563Z,8.40
2022-09-15T23:47:19.514Z,10.40
2022-09-15T23:52:19.460Z,17.10
2022-09-15T23:57:19.434Z,8.30
